sensor_id;sensor_type;location;lat;lon;timestamp;temperature;humidity
20712;DHT22;10517;50.742;4.224;2022-12-07T00:01:13;6.00;99.90
20712;DHT22;10517;50.742;4.224;2022-12-07T00:03:40;5.90;99.90
20712;DHT22;10517;50.742;4.224;2022-12-07T00:06:07;5.80;99.90
20712;DHT22;10517;50.742;4.224;2022-12-07T00:08:34;5.80;99.90
20712;DHT22;10517;50.742;4.224;2022-12-07T00:11:05;5.70;99.90
20712;DHT22;10517;50.742;4.224;2022-12-07T00:13:32;5.70;99.90
20712;DHT22;10517;50.742;4.224;2022-12-07T00:16:03;5.60;99.90
20712;DHT22;10517;50.742;4.224;2022-12-07T00:18:30;5.60;99.90
20712;DHT22;10517;50.742;4.224;2022-12-07T00:21:06;5.50;99.90
20712;DHT22;10517;50.742;4.224;2022-12-07T00:23:32;5.50;99.90
20712;DHT22;10517;50.742;4.224;2022-12-07T00:26:10;5.40;99.90
20712;DHT22;10517;50.742;4.224;2022-12-07T00:28:36;5.30;99.90
20712;DHT22;10517;50.742;4.224;2022-12-07T00:31:12;5.20;99.90
20712;DHT22;10517;50.742;4.224;2022-12-07T00:33:38;5.40;99.90
20712;DHT22;10517;50.742;4.224;2022-12-07T00:36:07;5.30;99.90
20712;DHT22;10517;50.742;4.224;2022-12-07T00:38:34;5.20;99.90
20712;DHT22;10517;50.742;4.224;2022-12-07T00:41:20;5.20;99.90
20712;DHT22;10517;50.742;4.224;2022-12-07T00:43:47;5.10;99.90
20712;DHT22;10517;50.742;4.224;2022-12-07T00:46:14;5.00;99.90
20712;DHT22;10517;50.742;4.224;2022-12-07T00:48:40;5.00;99.90
20712;DHT22;10517;50.742;4.224;2022-12-07T00:51:06;5.00;99.90
20712;DHT22;10517;50.742;4.224;2022-12-07T00:53:35;5.00;99.90
20712;DHT22;10517;50.742;4.224;2022-12-07T00:56:09;5.00;99.90
20712;DHT22;10517;50.742;4.224;2022-12-07T00:58:34;5.00;99.90
20712;DHT22;10517;50.742;4.224;2022-12-07T01:01:01;5.00;99.90
20712;DHT22;10517;50.742;4.224;2022-12-07T01:03:28;5.00;99.90
20712;DHT22;10517;50.742;4.224;2022-12-07T01:05:55;4.90;99.90
20712;DHT22;10517;50.742;4.224;2022-12-07T01:08:22;4.90;99.90
20712;DHT22;10517;50.742;4.224;2022-12-07T01:10:48;4.80;99.90
20712;DHT22;10517;50.742;4.224;2022-12-07T01:13:14;4.70;99.90
20712;DHT22;10517;50.742;4.224;2022-12-07T01:15:41;4.60;99.90
20712;DHT22;10517;50.742;4.224;2022-12-07T01:18:08;4.60;99.90
20712;DHT22;10517;50.742;4.224;2022-12-07T01:20:34;4.50;99.90
20712;DHT22;10517;50.742;4.224;2022-12-07T01:23:00;4.40;99.90
20712;DHT22;10517;50.742;4.224;2022-12-07T01:25:25;4.30;99.90
20712;DHT22;10517;50.742;4.224;2022-12-07T01:27:51;4.20;99.90
20712;DHT22;10517;50.742;4.224;2022-12-07T01:30:17;4.20;99.90
20712;DHT22;10517;50.742;4.224;2022-12-07T01:32:42;4.20;99.90
20712;DHT22;10517;50.742;4.224;2022-12-07T01:35:08;4.20;99.90
20712;DHT22;10517;50.742;4.224;2022-12-07T01:37:38;4.40;99.90
20712;DHT22;10517;50.742;4.224;2022-12-07T01:40:07;4.30;99.90
20712;DHT22;10517;50.742;4.224;2022-12-07T01:42:34;4.20;99.90
20712;DHT22;10517;50.742;4.224;2022-12-07T01:47:53;4.00;99.90
20712;DHT22;10517;50.742;4.224;2022-12-07T01:50:21;3.90;99.90
20712;DHT22;10517;50.742;4.224;2022-12-07T01:52:51;3.90;99.90
20712;DHT22;10517;50.742;4.224;2022-12-07T01:55:18;4.10;99.90
20712;DHT22;10517;50.742;4.224;2022-12-07T01:57:48;4.30;99.90
20712;DHT22;10517;50.742;4.224;2022-12-07T02:00:14;4.20;99.90
20712;DHT22;10517;50.742;4.224;2022-12-07T02:02:53;4.10;99.90
20712;DHT22;10517;50.742;4.224;2022-12-07T02:05:23;4.10;99.90
20712;DHT22;10517;50.742;4.224;2022-12-07T02:07:51;4.10;99.90
20712;DHT22;10517;50.742;4.224;2022-12-07T02:12:50;4.40;99.90
20712;DHT22;10517;50.742;4.224;2022-12-07T02:15:17;4.40;99.90
20712;DHT22;10517;50.742;4.224;2022-12-07T02:18:01;4.50;99.90
20712;DHT22;10517;50.742;4.224;2022-12-07T02:20:39;4.50;99.90
20712;DHT22;10517;50.742;4.224;2022-12-07T02:23:29;4.50;99.90
20712;DHT22;10517;50.742;4.224;2022-12-07T02:28:55;4.70;99.90
20712;DHT22;10517;50.742;4.224;2022-12-07T02:31:26;4.80;99.90
20712;DHT22;10517;50.742;4.224;2022-12-07T02:34:02;5.00;99.90
20712;DHT22;10517;50.742;4.224;2022-12-07T02:36:34;5.20;99.90
20712;DHT22;10517;50.742;4.224;2022-12-07T02:39:08;5.20;99.90
20712;DHT22;10517;50.742;4.224;2022-12-07T02:41:42;5.10;99.90
20712;DHT22;10517;50.742;4.224;2022-12-07T02:44:15;5.00;99.90
20712;DHT22;10517;50.742;4.224;2022-12-07T02:46:46;5.00;99.90
20712;DHT22;10517;50.742;4.224;2022-12-07T02:49:15;5.00;99.90
20712;DHT22;10517;50.742;4.224;2022-12-07T02:51:43;4.90;99.90
20712;DHT22;10517;50.742;4.224;2022-12-07T02:54:14;4.90;99.90
20712;DHT22;10517;50.742;4.224;2022-12-07T02:56:48;5.00;99.90
20712;DHT22;10517;50.742;4.224;2022-12-07T03:13:22;5.40;99.90
20712;DHT22;10517;50.742;4.224;2022-12-07T03:18:29;5.30;99.90
20712;DHT22;10517;50.742;4.224;2022-12-07T03:21:00;5.10;99.90
20712;DHT22;10517;50.742;4.224;2022-12-07T03:23:27;5.00;99.90
20712;DHT22;10517;50.742;4.224;2022-12-07T03:25:57;5.00;99.90
20712;DHT22;10517;50.742;4.224;2022-12-07T03:28:27;4.90;99.90
20712;DHT22;10517;50.742;4.224;2022-12-07T03:33:33;4.70;99.90
20712;DHT22;10517;50.742;4.224;2022-12-07T03:36:11;4.60;99.90
20712;DHT22;10517;50.742;4.224;2022-12-07T03:38:41;4.50;99.90
20712;DHT22;10517;50.742;4.224;2022-12-07T03:41:29;4.40;99.90
20712;DHT22;10517;50.742;4.224;2022-12-07T03:43:56;4.30;99.90
20712;DHT22;10517;50.742;4.224;2022-12-07T03:46:55;4.30;99.90
20712;DHT22;10517;50.742;4.224;2022-12-07T03:49:45;4.20;99.90
20712;DHT22;10517;50.742;4.224;2022-12-07T03:55:10;4.20;99.90
20712;DHT22;10517;50.742;4.224;2022-12-07T03:57:38;4.30;99.90
20712;DHT22;10517;50.742;4.224;2022-12-07T04:00:05;4.30;99.90
20712;DHT22;10517;50.742;4.224;2022-12-07T04:02:32;4.30;99.90
20712;DHT22;10517;50.742;4.224;2022-12-07T04:04:58;4.30;99.90
20712;DHT22;10517;50.742;4.224;2022-12-07T04:07:25;4.40;99.90
20712;DHT22;10517;50.742;4.224;2022-12-07T04:09:50;4.50;99.90
20712;DHT22;10517;50.742;4.224;2022-12-07T04:12:16;4.60;99.90
20712;DHT22;10517;50.742;4.224;2022-12-07T04:14:42;4.50;99.90
20712;DHT22;10517;50.742;4.224;2022-12-07T04:17:08;4.30;99.90
20712;DHT22;10517;50.742;4.224;2022-12-07T04:19:34;4.20;99.90
20712;DHT22;10517;50.742;4.224;2022-12-07T04:22:02;4.10;99.90
20712;DHT22;10517;50.742;4.224;2022-12-07T04:24:28;4.10;99.90
20712;DHT22;10517;50.742;4.224;2022-12-07T04:26:55;4.10;99.90
20712;DHT22;10517;50.742;4.224;2022-12-07T04:29:21;4.10;99.90
20712;DHT22;10517;50.742;4.224;2022-12-07T04:31:47;4.20;99.90
20712;DHT22;10517;50.742;4.224;2022-12-07T04:34:16;4.30;99.90
20712;DHT22;10517;50.742;4.224;2022-12-07T04:36:42;4.30;99.90
20712;DHT22;10517;50.742;4.224;2022-12-07T04:39:34;4.20;99.90
20712;DHT22;10517;50.742;4.224;2022-12-07T04:42:00;4.00;99.90
20712;DHT22;10517;50.742;4.224;2022-12-07T04:44:27;3.90;99.90
20712;DHT22;10517;50.742;4.224;2022-12-07T04:46:53;3.80;99.90
20712;DHT22;10517;50.742;4.224;2022-12-07T04:49:19;4.10;99.90
20712;DHT22;10517;50.742;4.224;2022-12-07T04:51:46;4.00;99.90
20712;DHT22;10517;50.742;4.224;2022-12-07T04:54:13;3.90;99.90
20712;DHT22;10517;50.742;4.224;2022-12-07T04:56:39;3.80;99.90
20712;DHT22;10517;50.742;4.224;2022-12-07T04:59:05;3.80;99.90
20712;DHT22;10517;50.742;4.224;2022-12-07T05:01:31;3.70;99.90
20712;DHT22;10517;50.742;4.224;2022-12-07T05:03:57;3.80;99.90
20712;DHT22;10517;50.742;4.224;2022-12-07T05:06:23;3.70;99.90
20712;DHT22;10517;50.742;4.224;2022-12-07T05:08:48;3.70;99.90
20712;DHT22;10517;50.742;4.224;2022-12-07T05:11:14;3.70;99.90
20712;DHT22;10517;50.742;4.224;2022-12-07T05:14:01;3.80;99.90
20712;DHT22;10517;50.742;4.224;2022-12-07T05:16:28;3.90;99.90
20712;DHT22;10517;50.742;4.224;2022-12-07T05:18:54;3.90;99.90
20712;DHT22;10517;50.742;4.224;2022-12-07T05:21:19;3.90;99.90
20712;DHT22;10517;50.742;4.224;2022-12-07T05:23:45;3.80;99.90
20712;DHT22;10517;50.742;4.224;2022-12-07T05:26:11;3.80;99.90
20712;DHT22;10517;50.742;4.224;2022-12-07T05:28:36;3.70;99.90
20712;DHT22;10517;50.742;4.224;2022-12-07T05:31:02;3.70;99.90
20712;DHT22;10517;50.742;4.224;2022-12-07T05:33:28;3.70;99.90
20712;DHT22;10517;50.742;4.224;2022-12-07T05:35:54;3.80;99.90
20712;DHT22;10517;50.742;4.224;2022-12-07T05:38:19;3.80;99.90
20712;DHT22;10517;50.742;4.224;2022-12-07T05:40:45;3.80;99.90
20712;DHT22;10517;50.742;4.224;2022-12-07T05:43:10;3.90;99.90
20712;DHT22;10517;50.742;4.224;2022-12-07T05:45:36;3.80;99.90
20712;DHT22;10517;50.742;4.224;2022-12-07T05:48:02;3.80;99.90
20712;DHT22;10517;50.742;4.224;2022-12-07T05:50:27;3.90;99.90
20712;DHT22;10517;50.742;4.224;2022-12-07T05:52:53;4.00;99.90
20712;DHT22;10517;50.742;4.224;2022-12-07T05:55:19;4.10;99.90
20712;DHT22;10517;50.742;4.224;2022-12-07T05:57:45;4.10;99.90
20712;DHT22;10517;50.742;4.224;2022-12-07T06:00:30;4.20;99.90
20712;DHT22;10517;50.742;4.224;2022-12-07T06:02:56;4.40;99.90
20712;DHT22;10517;50.742;4.224;2022-12-07T06:05:22;4.50;99.90
20712;DHT22;10517;50.742;4.224;2022-12-07T06:07:47;4.50;99.90
20712;DHT22;10517;50.742;4.224;2022-12-07T06:10:13;4.40;99.90
20712;DHT22;10517;50.742;4.224;2022-12-07T06:12:39;4.40;99.90
20712;DHT22;10517;50.742;4.224;2022-12-07T06:15:08;4.30;99.90
20712;DHT22;10517;50.742;4.224;2022-12-07T06:17:34;4.40;99.90
20712;DHT22;10517;50.742;4.224;2022-12-07T06:19:59;4.40;99.90
20712;DHT22;10517;50.742;4.224;2022-12-07T06:22:25;4.30;99.90
20712;DHT22;10517;50.742;4.224;2022-12-07T06:24:50;4.30;99.90
20712;DHT22;10517;50.742;4.224;2022-12-07T06:27:16;4.30;99.90
20712;DHT22;10517;50.742;4.224;2022-12-07T06:29:41;4.50;99.90
20712;DHT22;10517;50.742;4.224;2022-12-07T06:32:07;4.50;99.90
20712;DHT22;10517;50.742;4.224;2022-12-07T06:34:33;4.40;99.90
20712;DHT22;10517;50.742;4.224;2022-12-07T06:36:58;4.50;99.90
20712;DHT22;10517;50.742;4.224;2022-12-07T06:39:27;4.60;99.90
20712;DHT22;10517;50.742;4.224;2022-12-07T06:41:53;4.70;99.90
20712;DHT22;10517;50.742;4.224;2022-12-07T06:44:19;4.90;99.90
20712;DHT22;10517;50.742;4.224;2022-12-07T06:46:46;4.70;99.90
20712;DHT22;10517;50.742;4.224;2022-12-07T06:49:11;4.70;99.90
20712;DHT22;10517;50.742;4.224;2022-12-07T06:51:37;4.60;99.90
20712;DHT22;10517;50.742;4.224;2022-12-07T06:54:09;4.60;99.90
20712;DHT22;10517;50.742;4.224;2022-12-07T06:56:35;4.70;99.90
20712;DHT22;10517;50.742;4.224;2022-12-07T06:59:01;4.80;99.90
20712;DHT22;10517;50.742;4.224;2022-12-07T07:01:27;4.90;99.90
20712;DHT22;10517;50.742;4.224;2022-12-07T07:03:53;4.80;99.90
20712;DHT22;10517;50.742;4.224;2022-12-07T07:06:18;4.80;99.90
20712;DHT22;10517;50.742;4.224;2022-12-07T07:08:44;4.80;99.90
20712;DHT22;10517;50.742;4.224;2022-12-07T07:11:10;4.90;99.90
20712;DHT22;10517;50.742;4.224;2022-12-07T07:13:36;4.90;99.90
20712;DHT22;10517;50.742;4.224;2022-12-07T07:16:03;4.90;99.90
20712;DHT22;10517;50.742;4.224;2022-12-07T07:18:29;5.00;99.90
20712;DHT22;10517;50.742;4.224;2022-12-07T07:20:55;4.90;99.90
20712;DHT22;10517;50.742;4.224;2022-12-07T07:23:21;4.90;99.90
20712;DHT22;10517;50.742;4.224;2022-12-07T07:25:47;4.80;99.90
20712;DHT22;10517;50.742;4.224;2022-12-07T07:28:14;4.80;99.90
20712;DHT22;10517;50.742;4.224;2022-12-07T07:30:40;4.60;99.90
20712;DHT22;10517;50.742;4.224;2022-12-07T07:33:05;4.50;99.90
20712;DHT22;10517;50.742;4.224;2022-12-07T07:35:33;4.40;99.90
20712;DHT22;10517;50.742;4.224;2022-12-07T07:38:00;4.50;99.90
20712;DHT22;10517;50.742;4.224;2022-12-07T07:40:26;4.70;99.90
20712;DHT22;10517;50.742;4.224;2022-12-07T07:42:53;4.90;99.90
20712;DHT22;10517;50.742;4.224;2022-12-07T07:45:20;5.00;99.90
20712;DHT22;10517;50.742;4.224;2022-12-07T07:47:46;5.00;99.90
20712;DHT22;10517;50.742;4.224;2022-12-07T07:50:12;5.10;99.90
20712;DHT22;10517;50.742;4.224;2022-12-07T07:52:38;5.10;99.90
20712;DHT22;10517;50.742;4.224;2022-12-07T07:55:04;5.10;99.90
20712;DHT22;10517;50.742;4.224;2022-12-07T07:57:30;5.10;99.90
20712;DHT22;10517;50.742;4.224;2022-12-07T07:59:55;5.10;99.90
20712;DHT22;10517;50.742;4.224;2022-12-07T08:02:21;5.20;99.90
20712;DHT22;10517;50.742;4.224;2022-12-07T08:04:47;5.30;99.90
20712;DHT22;10517;50.742;4.224;2022-12-07T08:07:13;5.30;99.90
20712;DHT22;10517;50.742;4.224;2022-12-07T08:09:39;5.30;99.90
20712;DHT22;10517;50.742;4.224;2022-12-07T08:12:05;5.40;99.90
20712;DHT22;10517;50.742;4.224;2022-12-07T08:14:31;5.40;99.90
20712;DHT22;10517;50.742;4.224;2022-12-07T08:16:56;5.40;99.90
20712;DHT22;10517;50.742;4.224;2022-12-07T08:19:23;5.40;99.90
20712;DHT22;10517;50.742;4.224;2022-12-07T08:21:49;5.50;99.90
20712;DHT22;10517;50.742;4.224;2022-12-07T08:24:14;5.40;99.90
20712;DHT22;10517;50.742;4.224;2022-12-07T08:26:41;5.50;99.90
20712;DHT22;10517;50.742;4.224;2022-12-07T08:29:06;5.50;99.90
20712;DHT22;10517;50.742;4.224;2022-12-07T08:31:32;5.50;99.90
20712;DHT22;10517;50.742;4.224;2022-12-07T08:33:58;5.60;99.90
20712;DHT22;10517;50.742;4.224;2022-12-07T08:36:23;5.50;99.90
20712;DHT22;10517;50.742;4.224;2022-12-07T08:38:49;5.50;99.90
20712;DHT22;10517;50.742;4.224;2022-12-07T08:41:16;5.50;99.90
20712;DHT22;10517;50.742;4.224;2022-12-07T08:43:41;5.50;99.90
20712;DHT22;10517;50.742;4.224;2022-12-07T08:49:05;5.60;99.90
20712;DHT22;10517;50.742;4.224;2022-12-07T08:51:33;5.50;99.90
20712;DHT22;10517;50.742;4.224;2022-12-07T08:54:00;5.60;99.90
20712;DHT22;10517;50.742;4.224;2022-12-07T08:56:28;5.60;99.90
20712;DHT22;10517;50.742;4.224;2022-12-07T08:58:53;5.70;99.90
20712;DHT22;10517;50.742;4.224;2022-12-07T09:01:19;5.70;99.90
20712;DHT22;10517;50.742;4.224;2022-12-07T09:03:45;5.80;99.90
20712;DHT22;10517;50.742;4.224;2022-12-07T09:06:10;5.90;99.90
20712;DHT22;10517;50.742;4.224;2022-12-07T09:08:39;6.10;99.90
20712;DHT22;10517;50.742;4.224;2022-12-07T09:11:07;6.10;99.90
20712;DHT22;10517;50.742;4.224;2022-12-07T09:13:32;6.30;99.90
20712;DHT22;10517;50.742;4.224;2022-12-07T09:16:01;6.30;99.90
20712;DHT22;10517;50.742;4.224;2022-12-07T09:18:26;6.40;99.90
20712;DHT22;10517;50.742;4.224;2022-12-07T09:20:52;6.40;99.90
20712;DHT22;10517;50.742;4.224;2022-12-07T09:23:18;6.40;99.90
20712;DHT22;10517;50.742;4.224;2022-12-07T09:25:43;6.30;99.90
20712;DHT22;10517;50.742;4.224;2022-12-07T09:28:09;6.40;99.90
20712;DHT22;10517;50.742;4.224;2022-12-07T09:30:34;6.40;99.90
20712;DHT22;10517;50.742;4.224;2022-12-07T09:33:00;6.30;99.90
20712;DHT22;10517;50.742;4.224;2022-12-07T09:35:26;6.40;99.90
20712;DHT22;10517;50.742;4.224;2022-12-07T09:37:52;6.40;99.90
20712;DHT22;10517;50.742;4.224;2022-12-07T09:40:19;6.50;99.90
20712;DHT22;10517;50.742;4.224;2022-12-07T09:42:48;6.40;99.90
20712;DHT22;10517;50.742;4.224;2022-12-07T09:45:19;6.50;99.90
20712;DHT22;10517;50.742;4.224;2022-12-07T09:47:46;6.50;99.90
20712;DHT22;10517;50.742;4.224;2022-12-07T09:50:14;6.50;99.90
20712;DHT22;10517;50.742;4.224;2022-12-07T09:52:41;6.60;99.90
20712;DHT22;10517;50.742;4.224;2022-12-07T09:55:16;6.60;99.90
20712;DHT22;10517;50.742;4.224;2022-12-07T09:57:42;6.60;99.90
20712;DHT22;10517;50.742;4.224;2022-12-07T10:00:17;6.70;99.90
20712;DHT22;10517;50.742;4.224;2022-12-07T10:02:46;6.80;99.90
20712;DHT22;10517;50.742;4.224;2022-12-07T10:05:16;7.00;99.90
20712;DHT22;10517;50.742;4.224;2022-12-07T10:07:43;7.20;99.90
20712;DHT22;10517;50.742;4.224;2022-12-07T10:10:23;7.20;99.90
20712;DHT22;10517;50.742;4.224;2022-12-07T10:15:48;7.20;99.90
20712;DHT22;10517;50.742;4.224;2022-12-07T10:18:35;7.10;99.90
20712;DHT22;10517;50.742;4.224;2022-12-07T10:21:14;6.90;99.90
20712;DHT22;10517;50.742;4.224;2022-12-07T10:26:32;6.90;99.90
20712;DHT22;10517;50.742;4.224;2022-12-07T10:29:34;7.10;99.90
20712;DHT22;10517;50.742;4.224;2022-12-07T10:34:40;7.40;99.90
20712;DHT22;10517;50.742;4.224;2022-12-07T10:37:26;7.40;99.90
20712;DHT22;10517;50.742;4.224;2022-12-07T10:39:55;7.30;99.90
20712;DHT22;10517;50.742;4.224;2022-12-07T10:42:25;7.10;99.90
20712;DHT22;10517;50.742;4.224;2022-12-07T10:45:15;7.10;99.90
20712;DHT22;10517;50.742;4.224;2022-12-07T10:47:54;7.10;99.90
20712;DHT22;10517;50.742;4.224;2022-12-07T11:02:17;7.10;99.90
20712;DHT22;10517;50.742;4.224;2022-12-07T11:21:58;7.40;99.90
20712;DHT22;10517;50.742;4.224;2022-12-07T11:29:49;7.80;99.90
20712;DHT22;10517;50.742;4.224;2022-12-07T11:37:28;7.90;99.90
20712;DHT22;10517;50.742;4.224;2022-12-07T11:40:13;7.70;99.90
20712;DHT22;10517;50.742;4.224;2022-12-07T11:42:45;7.60;99.90
20712;DHT22;10517;50.742;4.224;2022-12-07T11:47:51;7.50;99.90
20712;DHT22;10517;50.742;4.224;2022-12-07T11:52:58;7.60;99.90
20712;DHT22;10517;50.742;4.224;2022-12-07T11:55:39;7.50;99.90
20712;DHT22;10517;50.742;4.224;2022-12-07T11:58:35;7.50;99.90
20712;DHT22;10517;50.742;4.224;2022-12-07T12:01:31;7.60;99.90
20712;DHT22;10517;50.742;4.224;2022-12-07T12:06:37;7.50;99.90
20712;DHT22;10517;50.742;4.224;2022-12-07T12:14:38;7.10;99.90
20712;DHT22;10517;50.742;4.224;2022-12-07T12:25:52;7.30;99.90
20712;DHT22;10517;50.742;4.224;2022-12-07T12:29:02;7.60;99.90
20712;DHT22;10517;50.742;4.224;2022-12-07T12:33:56;7.50;99.90
20712;DHT22;10517;50.742;4.224;2022-12-07T12:46:59;7.30;99.90
20712;DHT22;10517;50.742;4.224;2022-12-07T12:49:33;7.20;99.90
20712;DHT22;10517;50.742;4.224;2022-12-07T12:57:34;7.00;99.90
20712;DHT22;10517;50.742;4.224;2022-12-07T13:00:15;7.00;99.90
20712;DHT22;10517;50.742;4.224;2022-12-07T13:02:50;7.00;99.90
20712;DHT22;10517;50.742;4.224;2022-12-07T13:05:22;7.00;99.90
20712;DHT22;10517;50.742;4.224;2022-12-07T13:07:57;7.10;99.90
20712;DHT22;10517;50.742;4.224;2022-12-07T13:15:39;7.20;99.90
20712;DHT22;10517;50.742;4.224;2022-12-07T13:26:35;7.60;99.90
20712;DHT22;10517;50.742;4.224;2022-12-07T13:29:11;7.90;99.90
20712;DHT22;10517;50.742;4.224;2022-12-07T13:31:54;8.10;99.90
20712;DHT22;10517;50.742;4.224;2022-12-07T13:34:38;8.00;99.90
20712;DHT22;10517;50.742;4.224;2022-12-07T13:37:30;7.80;99.90
20712;DHT22;10517;50.742;4.224;2022-12-07T13:39:59;7.70;99.90
20712;DHT22;10517;50.742;4.224;2022-12-07T13:44:57;7.50;99.90
20712;DHT22;10517;50.742;4.224;2022-12-07T13:47:41;7.40;99.90
20712;DHT22;10517;50.742;4.224;2022-12-07T13:50:40;7.30;99.90
20712;DHT22;10517;50.742;4.224;2022-12-07T13:53:12;7.30;99.90
20712;DHT22;10517;50.742;4.224;2022-12-07T13:55:44;7.30;99.90
20712;DHT22;10517;50.742;4.224;2022-12-07T13:58:11;7.20;99.90
20712;DHT22;10517;50.742;4.224;2022-12-07T14:00:37;7.40;99.90
20712;DHT22;10517;50.742;4.224;2022-12-07T14:05:38;7.50;99.90
20712;DHT22;10517;50.742;4.224;2022-12-07T14:13:03;7.40;99.90
20712;DHT22;10517;50.742;4.224;2022-12-07T14:15:50;7.30;99.90
20712;DHT22;10517;50.742;4.224;2022-12-07T14:23:35;7.20;99.90
20712;DHT22;10517;50.742;4.224;2022-12-07T14:28:39;7.20;99.90
20712;DHT22;10517;50.742;4.224;2022-12-07T14:31:11;7.20;99.90
20712;DHT22;10517;50.742;4.224;2022-12-07T14:33:37;7.20;99.90
20712;DHT22;10517;50.742;4.224;2022-12-07T14:36:03;7.30;99.90
20712;DHT22;10517;50.742;4.224;2022-12-07T14:38:29;7.40;99.90
20712;DHT22;10517;50.742;4.224;2022-12-07T14:40:55;7.40;99.90
20712;DHT22;10517;50.742;4.224;2022-12-07T14:43:40;7.50;99.90
20712;DHT22;10517;50.742;4.224;2022-12-07T14:46:06;7.60;99.90
20712;DHT22;10517;50.742;4.224;2022-12-07T14:48:32;7.50;99.90
20712;DHT22;10517;50.742;4.224;2022-12-07T14:50:57;7.40;99.90
20712;DHT22;10517;50.742;4.224;2022-12-07T14:53:29;7.40;99.90
20712;DHT22;10517;50.742;4.224;2022-12-07T14:55:55;7.30;99.90
20712;DHT22;10517;50.742;4.224;2022-12-07T14:58:21;7.40;99.90
20712;DHT22;10517;50.742;4.224;2022-12-07T15:00:46;7.40;99.90
20712;DHT22;10517;50.742;4.224;2022-12-07T15:03:13;7.50;99.90
20712;DHT22;10517;50.742;4.224;2022-12-07T15:05:39;7.20;99.90
20712;DHT22;10517;50.742;4.224;2022-12-07T15:08:06;7.10;99.90
20712;DHT22;10517;50.742;4.224;2022-12-07T15:10:34;7.00;99.90
20712;DHT22;10517;50.742;4.224;2022-12-07T15:13:02;6.90;99.90
20712;DHT22;10517;50.742;4.224;2022-12-07T15:15:51;6.90;99.90
20712;DHT22;10517;50.742;4.224;2022-12-07T15:18:18;6.90;99.90
20712;DHT22;10517;50.742;4.224;2022-12-07T15:20:44;7.00;99.90
20712;DHT22;10517;50.742;4.224;2022-12-07T15:23:11;6.90;99.90
20712;DHT22;10517;50.742;4.224;2022-12-07T15:25:40;6.90;99.90
20712;DHT22;10517;50.742;4.224;2022-12-07T15:28:05;7.00;99.90
20712;DHT22;10517;50.742;4.224;2022-12-07T15:30:31;6.90;99.90
20712;DHT22;10517;50.742;4.224;2022-12-07T15:32:56;6.90;99.90
20712;DHT22;10517;50.742;4.224;2022-12-07T15:35:22;6.90;99.90
20712;DHT22;10517;50.742;4.224;2022-12-07T15:37:48;6.90;99.90
20712;DHT22;10517;50.742;4.224;2022-12-07T15:40:14;6.90;99.90
20712;DHT22;10517;50.742;4.224;2022-12-07T15:42:40;6.90;99.90
20712;DHT22;10517;50.742;4.224;2022-12-07T15:45:07;6.80;99.90
20712;DHT22;10517;50.742;4.224;2022-12-07T15:47:42;6.80;99.90
20712;DHT22;10517;50.742;4.224;2022-12-07T15:50:11;6.70;99.90
20712;DHT22;10517;50.742;4.224;2022-12-07T15:52:38;6.70;99.90
20712;DHT22;10517;50.742;4.224;2022-12-07T15:55:04;6.60;99.90
20712;DHT22;10517;50.742;4.224;2022-12-07T15:57:31;6.70;99.90
20712;DHT22;10517;50.742;4.224;2022-12-07T15:59:57;6.60;99.90
20712;DHT22;10517;50.742;4.224;2022-12-07T16:02:23;6.30;99.90
20712;DHT22;10517;50.742;4.224;2022-12-07T16:04:49;6.30;99.90
20712;DHT22;10517;50.742;4.224;2022-12-07T16:07:15;6.20;99.90
20712;DHT22;10517;50.742;4.224;2022-12-07T16:09:42;6.00;99.90
20712;DHT22;10517;50.742;4.224;2022-12-07T16:12:08;5.80;99.90
20712;DHT22;10517;50.742;4.224;2022-12-07T16:14:34;5.60;99.90
20712;DHT22;10517;50.742;4.224;2022-12-07T16:16:59;5.60;99.90
20712;DHT22;10517;50.742;4.224;2022-12-07T16:19:25;5.60;99.90
20712;DHT22;10517;50.742;4.224;2022-12-07T16:21:51;5.70;99.90
20712;DHT22;10517;50.742;4.224;2022-12-07T16:24:17;5.70;99.90
20712;DHT22;10517;50.742;4.224;2022-12-07T16:26:43;5.80;99.90
20712;DHT22;10517;50.742;4.224;2022-12-07T16:29:12;5.80;99.90
20712;DHT22;10517;50.742;4.224;2022-12-07T16:31:38;5.80;99.90
20712;DHT22;10517;50.742;4.224;2022-12-07T16:34:04;5.90;99.90
20712;DHT22;10517;50.742;4.224;2022-12-07T16:36:30;5.90;99.90
20712;DHT22;10517;50.742;4.224;2022-12-07T16:38:58;5.80;99.90
20712;DHT22;10517;50.742;4.224;2022-12-07T16:41:24;5.80;99.90
20712;DHT22;10517;50.742;4.224;2022-12-07T16:43:50;5.90;99.90
20712;DHT22;10517;50.742;4.224;2022-12-07T16:46:15;6.00;99.90
20712;DHT22;10517;50.742;4.224;2022-12-07T16:48:42;6.00;99.90
20712;DHT22;10517;50.742;4.224;2022-12-07T16:51:10;6.00;99.90
20712;DHT22;10517;50.742;4.224;2022-12-07T16:53:38;6.10;99.90
20712;DHT22;10517;50.742;4.224;2022-12-07T16:56:10;6.10;99.90
20712;DHT22;10517;50.742;4.224;2022-12-07T16:58:36;6.10;99.90
20712;DHT22;10517;50.742;4.224;2022-12-07T17:01:12;6.20;99.90
20712;DHT22;10517;50.742;4.224;2022-12-07T17:03:38;6.20;99.90
20712;DHT22;10517;50.742;4.224;2022-12-07T17:06:11;6.20;99.90
20712;DHT22;10517;50.742;4.224;2022-12-07T17:08:38;6.20;99.90
20712;DHT22;10517;50.742;4.224;2022-12-07T17:11:10;6.10;99.90
20712;DHT22;10517;50.742;4.224;2022-12-07T17:13:35;6.10;99.90
20712;DHT22;10517;50.742;4.224;2022-12-07T17:16:19;6.10;99.90
20712;DHT22;10517;50.742;4.224;2022-12-07T17:18:45;6.10;99.90
20712;DHT22;10517;50.742;4.224;2022-12-07T17:21:10;6.10;99.90
20712;DHT22;10517;50.742;4.224;2022-12-07T17:23:36;6.10;99.90
20712;DHT22;10517;50.742;4.224;2022-12-07T17:26:19;6.00;99.90
20712;DHT22;10517;50.742;4.224;2022-12-07T17:28:46;6.00;99.90
20712;DHT22;10517;50.742;4.224;2022-12-07T17:31:14;5.90;99.90
20712;DHT22;10517;50.742;4.224;2022-12-07T17:33:40;5.90;99.90
20712;DHT22;10517;50.742;4.224;2022-12-07T17:36:14;5.90;99.90
20712;DHT22;10517;50.742;4.224;2022-12-07T17:38:41;5.90;99.90
20712;DHT22;10517;50.742;4.224;2022-12-07T17:41:14;5.90;99.90
20712;DHT22;10517;50.742;4.224;2022-12-07T17:44:06;5.80;99.90
20712;DHT22;10517;50.742;4.224;2022-12-07T17:46:32;5.80;99.90
20712;DHT22;10517;50.742;4.224;2022-12-07T17:48:58;5.70;99.90
20712;DHT22;10517;50.742;4.224;2022-12-07T17:51:24;5.60;99.90
20712;DHT22;10517;50.742;4.224;2022-12-07T17:54:09;5.50;99.90
20712;DHT22;10517;50.742;4.224;2022-12-07T17:56:35;5.50;99.90
20712;DHT22;10517;50.742;4.224;2022-12-07T17:59:01;5.50;99.90
20712;DHT22;10517;50.742;4.224;2022-12-07T18:01:27;5.60;99.90
20712;DHT22;10517;50.742;4.224;2022-12-07T18:03:52;5.60;99.90
20712;DHT22;10517;50.742;4.224;2022-12-07T18:06:18;5.60;99.90
20712;DHT22;10517;50.742;4.224;2022-12-07T18:08:43;5.60;99.90
20712;DHT22;10517;50.742;4.224;2022-12-07T18:11:09;5.60;99.90
20712;DHT22;10517;50.742;4.224;2022-12-07T18:13:35;5.60;99.90
20712;DHT22;10517;50.742;4.224;2022-12-07T18:16:01;5.50;99.90
20712;DHT22;10517;50.742;4.224;2022-12-07T18:18:27;5.70;99.90
20712;DHT22;10517;50.742;4.224;2022-12-07T18:20:53;5.70;99.90
20712;DHT22;10517;50.742;4.224;2022-12-07T18:23:18;5.60;99.90
20712;DHT22;10517;50.742;4.224;2022-12-07T18:25:51;5.60;99.90
20712;DHT22;10517;50.742;4.224;2022-12-07T18:28:17;5.50;99.90
20712;DHT22;10517;50.742;4.224;2022-12-07T18:30:44;5.40;99.90